createdAt,value
2022-10-19T00:01:06.346Z,101219.00
2022-10-19T00:02:08.901Z,101214.47
2022-10-19T00:03:11.355Z,101207.94
2022-10-19T00:04:21.115Z,101206.94
2022-10-19T00:05:23.359Z,101200.59
2022-10-19T00:06:29.460Z,101197.97
2022-10-19T00:07:32.253Z,101200.31
2022-10-19T00:08:36.379Z,101189.78
2022-10-19T00:09:38.710Z,101202.66
2022-10-19T00:10:41.822Z,101199.63
2022-10-19T00:11:49.707Z,101200.72
2022-10-19T00:12:52.258Z,101197.78
2022-10-19T00:13:55.678Z,101203.25
2022-10-19T00:14:58.238Z,101203.13
2022-10-19T00:16:00.479Z,101208.13
2022-10-19T00:17:02.821Z,101212.63
2022-10-19T00:18:06.322Z,101211.63
2022-10-19T00:19:13.265Z,101213.19
2022-10-19T00:20:15.669Z,101214.56
2022-10-19T00:21:19.718Z,101205.97
2022-10-19T00:22:22.170Z,101210.53
2022-10-19T00:23:24.408Z,101212.72
2022-10-19T00:24:26.682Z,101206.09
2022-10-19T00:25:29.078Z,101202.53
2022-10-19T00:26:31.661Z,101202.38
2022-10-19T00:27:35.724Z,101198.34
2022-10-19T00:28:39.636Z,101201.19
2022-10-19T00:29:41.929Z,101203.25
2022-10-19T00:30:44.169Z,101198.75
2022-10-19T00:31:46.467Z,101196.13
2022-10-19T00:32:48.759Z,101200.50
2022-10-19T00:33:51.351Z,101198.94
2022-10-19T00:35:12.222Z,101201.88
2022-10-19T00:36:23.696Z,101196.13
2022-10-19T00:37:25.974Z,101201.00
2022-10-19T00:38:33.164Z,101201.09
2022-10-19T00:39:35.464Z,101200.59
2022-10-19T00:40:39.419Z,101201.31
2022-10-19T00:41:42.901Z,101193.97
2022-10-19T00:42:45.119Z,101199.91
2022-10-19T00:44:01.337Z,101196.25
2022-10-19T00:45:14.554Z,101188.03
2022-10-19T00:46:16.881Z,101184.53
2022-10-19T00:47:23.351Z,101185.03
2022-10-19T00:48:30.166Z,101184.72
2022-10-19T00:49:36.131Z,101174.59
2022-10-19T00:50:39.630Z,101181.13
2022-10-19T00:51:45.207Z,101178.19
2022-10-19T00:52:47.822Z,101177.41
2022-10-19T00:53:50.439Z,101179.28
2022-10-19T00:54:55.327Z,101174.13
2022-10-19T00:55:59.584Z,101176.25
2022-10-19T00:57:04.325Z,101173.72
2022-10-19T00:58:08.126Z,101172.94
2022-10-19T00:59:12.403Z,101167.69
2022-10-19T01:00:14.844Z,101166.81
2022-10-19T01:01:20.443Z,101172.44
2022-10-19T01:02:23.581Z,101181.13
2022-10-19T01:03:26.174Z,101170.00
2022-10-19T01:04:30.841Z,101163.88
2022-10-19T01:05:34.371Z,101160.28
2022-10-19T01:06:37.373Z,101156.25
2022-10-19T01:07:39.958Z,101151.19
2022-10-19T01:08:42.722Z,101148.47
2022-10-19T01:09:45.320Z,101151.88
2022-10-19T01:11:02.019Z,101147.06
2022-10-19T01:12:20.180Z,101146.22
2022-10-19T01:13:43.796Z,101141.22
2022-10-19T01:15:04.055Z,101144.06
2022-10-19T01:16:21.370Z,101143.78
2022-10-19T01:17:48.341Z,101136.81
2022-10-19T01:19:35.108Z,101132.03
2022-10-19T01:21:14.384Z,101127.44
2022-10-19T01:22:58.578Z,101129.91
2022-10-19T01:24:16.034Z,101132.13
2022-10-19T01:25:55.573Z,101126.06
2022-10-19T01:27:16.894Z,101126.84
2022-10-19T01:28:56.720Z,101128.59
2022-10-19T01:30:15.602Z,101133.16
2022-10-19T01:31:23.887Z,101133.16
2022-10-19T01:32:47.832Z,101131.09
2022-10-19T01:33:52.911Z,101135.34
2022-10-19T01:35:04.500Z,101131.34
2022-10-19T01:36:29.947Z,101137.09
2022-10-19T01:37:40.021Z,101136.31
2022-10-19T01:39:17.162Z,101136.13
2022-10-19T01:40:28.334Z,101139.13
2022-10-19T01:41:41.869Z,101141.47
2022-10-19T01:42:46.754Z,101132.94
2022-10-19T01:44:01.147Z,101135.28
2022-10-19T01:45:12.158Z,101133.44
2022-10-19T01:46:16.895Z,101131.47
2022-10-19T01:47:25.164Z,101132.84
2022-10-19T01:48:32.700Z,101130.97
2022-10-19T01:49:50.126Z,101129.59
2022-10-19T01:51:02.183Z,101124.22
2022-10-19T01:52:06.627Z,101123.44
2022-10-19T01:53:12.571Z,101129.06
2022-10-19T01:54:17.103Z,101129.41
2022-10-19T01:55:21.758Z,101135.16
2022-10-19T01:56:27.688Z,101133.63
2022-10-19T01:57:35.456Z,101134.41
2022-10-19T01:58:41.272Z,101142.78
2022-10-19T01:59:44.924Z,101142.03
2022-10-19T02:00:52.800Z,101142.84
2022-10-19T02:01:56.182Z,101150.13
2022-10-19T02:03:00.811Z,101143.47
2022-10-19T02:04:04.351Z,101149.53
2022-10-19T02:05:08.454Z,101148.75
2022-10-19T02:06:12.070Z,101143.97
2022-10-19T02:07:15.597Z,101139.16
2022-10-19T02:08:26.912Z,101137.31
2022-10-19T02:09:29.470Z,101132.34
2022-10-19T02:10:34.500Z,101135.09
2022-10-19T02:11:38.285Z,101135.56
2022-10-19T02:12:41.400Z,101133.88
2022-10-19T02:13:46.297Z,101131.44
2022-10-19T02:14:53.568Z,101134.06
2022-10-19T02:15:59.607Z,101128.47
2022-10-19T02:17:11.622Z,101134.69
2022-10-19T02:18:17.885Z,101121.53
2022-10-19T02:19:21.894Z,101134.53
2022-10-19T02:20:24.500Z,101129.72
2022-10-19T02:21:27.993Z,101140.59
2022-10-19T02:22:31.127Z,101137.31
2022-10-19T02:23:34.226Z,101138.53
2022-10-19T02:24:36.658Z,101141.03
2022-10-19T02:25:38.954Z,101143.81
2022-10-19T02:26:41.814Z,101145.81
2022-10-19T02:27:44.760Z,101146.91
2022-10-19T02:28:48.392Z,101150.31
2022-10-19T02:29:50.807Z,101152.16
2022-10-19T02:30:53.382Z,101157.72
2022-10-19T02:31:55.645Z,101156.78
2022-10-19T02:32:58.100Z,101153.09
2022-10-19T02:34:00.793Z,101157.44
2022-10-19T02:35:03.335Z,101159.53
2022-10-19T02:36:06.079Z,101154.16
2022-10-19T02:37:08.645Z,101154.00
2022-10-19T02:38:15.101Z,101160.56
2022-10-19T02:39:17.670Z,101154.38
2022-10-19T02:40:20.161Z,101159.53
2022-10-19T02:41:27.730Z,101159.06
2022-10-19T02:42:37.669Z,101155.06
2022-10-19T02:43:42.932Z,101156.00
2022-10-19T02:45:01.933Z,101154.78
2022-10-19T02:46:14.210Z,101151.06
2022-10-19T02:47:24.991Z,101152.31
2022-10-19T02:48:32.082Z,101159.44
2022-10-19T02:49:36.763Z,101161.47
2022-10-19T02:50:44.686Z,101164.28
2022-10-19T02:52:08.693Z,101168.16
2022-10-19T02:53:11.445Z,101169.41
2022-10-19T02:54:13.642Z,101166.94
2022-10-19T02:55:15.986Z,101167.25
2022-10-19T02:56:18.291Z,101169.59
2022-10-19T02:57:24.202Z,101168.47
2022-10-19T02:58:26.451Z,101167.75
2022-10-19T02:59:28.939Z,101173.75
2022-10-19T03:00:31.364Z,101166.31
2022-10-19T03:01:33.499Z,101163.19
2022-10-19T03:02:35.790Z,101164.16
2022-10-19T03:03:38.078Z,101156.72
2022-10-19T03:04:41.843Z,101160.59
2022-10-19T03:05:44.086Z,101158.72
2022-10-19T03:06:46.924Z,101155.31
2022-10-19T03:07:49.225Z,101159.84
2022-10-19T03:08:51.511Z,101164.00
2022-10-19T03:09:53.815Z,101160.75
2022-10-19T03:10:59.119Z,101157.53
2022-10-19T03:12:01.369Z,101154.88
2022-10-19T03:13:03.657Z,101144.63
2022-10-19T03:14:06.192Z,101151.94
2022-10-19T03:15:09.162Z,101153.00
2022-10-19T03:16:12.855Z,101151.75
2022-10-19T03:17:15.190Z,101157.81
2022-10-19T03:18:17.427Z,101159.66
2022-10-19T03:19:19.881Z,101155.19
2022-10-19T03:20:22.126Z,101158.59
2022-10-19T03:21:24.472Z,101166.22
2022-10-19T03:22:26.916Z,101161.72
2022-10-19T03:23:29.941Z,101161.09
2022-10-19T03:24:32.359Z,101153.63
2022-10-19T03:25:34.579Z,101149.16
2022-10-19T03:26:37.579Z,101154.09
2022-10-19T03:27:40.001Z,101156.91
2022-10-19T03:28:45.335Z,101153.97
2022-10-19T03:29:47.761Z,101142.78
2022-10-19T03:30:50.007Z,101144.66
2022-10-19T03:31:52.313Z,101154.91
2022-10-19T03:32:54.522Z,101141.22
2022-10-19T03:33:56.813Z,101137.22
2022-10-19T03:34:59.105Z,101147.09
2022-10-19T03:36:25.236Z,101158.16
2022-10-19T03:37:28.739Z,101163.13
2022-10-19T03:38:33.329Z,101166.53
2022-10-19T03:39:35.703Z,101160.19
2022-10-19T03:40:38.113Z,101166.25
2022-10-19T03:41:40.971Z,101167.00
2022-10-19T03:42:43.680Z,101167.47
2022-10-19T03:43:46.137Z,101165.63
2022-10-19T03:44:48.424Z,101158.47
2022-10-19T03:45:50.883Z,101163.44
2022-10-19T03:46:53.461Z,101155.34
2022-10-19T03:47:56.123Z,101157.84
2022-10-19T03:49:00.527Z,101153.97
2022-10-19T03:50:02.997Z,101152.13
2022-10-19T03:51:12.925Z,101156.44
2022-10-19T03:52:15.327Z,101157.22
2022-10-19T03:53:17.540Z,101162.50
2022-10-19T03:54:22.457Z,101157.69
2022-10-19T03:55:27.221Z,101154.75
2022-10-19T03:56:31.184Z,101160.97
2022-10-19T03:57:33.573Z,101159.72
2022-10-19T03:58:38.212Z,101153.78
2022-10-19T03:59:40.515Z,101154.28
2022-10-19T04:00:42.888Z,101148.72
2022-10-19T04:01:46.597Z,101154.44
2022-10-19T04:02:48.801Z,101147.31
2022-10-19T04:03:55.531Z,101163.47
2022-10-19T04:04:57.964Z,101161.91
2022-10-19T04:06:05.738Z,101166.41
2022-10-19T04:07:08.058Z,101169.50
2022-10-19T04:08:11.454Z,101156.31
2022-10-19T04:09:18.546Z,101156.47
2022-10-19T04:10:20.847Z,101158.47
2022-10-19T04:11:26.535Z,101150.25
2022-10-19T04:12:29.438Z,101157.38
2022-10-19T04:13:32.820Z,101147.63
2022-10-19T04:14:52.405Z,101147.75
2022-10-19T04:15:58.775Z,101149.97
2022-10-19T04:17:02.563Z,101155.25
2022-10-19T04:18:04.912Z,101153.66
2022-10-19T04:19:09.063Z,101149.00
2022-10-19T04:20:11.672Z,101152.44
2022-10-19T04:21:27.846Z,101150.09
2022-10-19T04:22:30.132Z,101151.78
2022-10-19T04:23:36.140Z,101151.78
2022-10-19T04:24:38.434Z,101155.06
2022-10-19T04:25:40.643Z,101149.28
2022-10-19T04:27:01.929Z,101158.81
2022-10-19T04:28:04.266Z,101168.28
2022-10-19T04:29:06.683Z,101169.53
2022-10-19T04:30:09.505Z,101161.72
2022-10-19T04:31:12.952Z,101172.94
2022-10-19T04:32:15.172Z,101172.16
2022-10-19T04:33:17.725Z,101172.16
2022-10-19T04:34:20.002Z,101172.94
2022-10-19T04:35:22.304Z,101173.25
2022-10-19T04:36:28.037Z,101165.78
2022-10-19T04:37:30.525Z,101177.16
2022-10-19T04:38:34.517Z,101181.31
2022-10-19T04:39:39.777Z,101173.72
2022-10-19T04:40:42.078Z,101171.38
2022-10-19T04:41:44.325Z,101173.72
2022-10-19T04:42:46.669Z,101178.38
2022-10-19T04:43:49.834Z,101179.91
2022-10-19T04:44:52.036Z,101164.88
2022-10-19T04:45:54.345Z,101165.31
2022-10-19T04:46:56.673Z,101168.41
2022-10-19T04:47:59.109Z,101165.78
2022-10-19T04:49:04.364Z,101166.25
2022-10-19T04:50:06.703Z,101168.59
2022-10-19T04:51:10.044Z,101177.56
2022-10-19T04:52:12.183Z,101176.81
2022-10-19T04:53:14.432Z,101181.63
2022-10-19T04:54:16.794Z,101179.63
2022-10-19T04:55:18.964Z,101180.56
2022-10-19T04:56:23.350Z,101182.72
2022-10-19T04:57:27.368Z,101186.00
2022-10-19T04:58:30.247Z,101183.50
2022-10-19T04:59:32.709Z,101185.81
2022-10-19T05:00:37.548Z,101174.47
2022-10-19T05:01:46.416Z,101172.94
2022-10-19T05:02:49.670Z,101175.13
2022-10-19T05:03:59.192Z,101173.41
2022-10-19T05:05:01.403Z,101169.66
2022-10-19T05:06:04.216Z,101174.66
2022-10-19T05:07:06.475Z,101172.16
2022-10-19T05:08:09.951Z,101171.34
2022-10-19T05:09:12.362Z,101171.19
2022-10-19T05:10:17.556Z,101165.44
2022-10-19T05:11:26.483Z,101169.75
2022-10-19T05:12:28.719Z,101168.84
2022-10-19T05:13:34.425Z,101159.59
2022-10-19T05:14:39.057Z,101164.72
2022-10-19T05:15:44.235Z,101165.19
2022-10-19T05:16:46.451Z,101153.22
2022-10-19T05:17:48.689Z,101153.22
2022-10-19T05:18:53.609Z,101147.44
2022-10-19T05:19:55.842Z,101142.16
2022-10-19T05:21:07.269Z,101143.72
2022-10-19T05:22:09.794Z,101127.06
2022-10-19T05:23:11.964Z,101128.16
2022-10-19T05:24:14.360Z,101132.81
2022-10-19T05:25:16.803Z,101135.47
2022-10-19T05:26:21.201Z,101138.91
2022-10-19T05:27:23.571Z,101141.19
2022-10-19T05:28:27.695Z,101138.56
2022-10-19T05:29:30.389Z,101134.69
2022-10-19T05:30:33.034Z,101136.25
2022-10-19T05:31:35.419Z,101136.38
2022-10-19T05:32:37.643Z,101140.09
2022-10-19T05:33:41.022Z,101144.78
2022-10-19T05:34:43.649Z,101144.78
2022-10-19T05:35:45.943Z,101148.63
2022-10-19T05:36:48.222Z,101147.25
2022-10-19T05:37:55.588Z,101150.19
2022-10-19T05:38:58.705Z,101145.69
2022-10-19T05:40:01.192Z,101144.28
2022-10-19T05:41:03.406Z,101150.34
2022-10-19T05:42:05.567Z,101146.63
2022-10-19T05:43:10.185Z,101145.84
2022-10-19T05:44:16.073Z,101146.13
2022-10-19T05:45:18.538Z,101143.63
2022-10-19T05:46:20.796Z,101144.41
2022-10-19T05:47:26.202Z,101148.28
2022-10-19T05:48:33.947Z,101151.38
2022-10-19T05:49:36.614Z,101149.97
2022-10-19T05:50:39.165Z,101157.75
2022-10-19T05:51:42.062Z,101153.22
2022-10-19T05:52:44.517Z,101155.13
2022-10-19T05:53:47.033Z,101158.38
2022-10-19T05:54:49.186Z,101162.84
2022-10-19T05:55:51.420Z,101164.72
2022-10-19T05:56:54.011Z,101160.66
2022-10-19T05:57:56.346Z,101161.44
2022-10-19T05:59:02.262Z,101159.91
2022-10-19T06:00:05.396Z,101162.56
2022-10-19T06:01:14.981Z,101165.31
2022-10-19T06:02:17.344Z,101160.78
2022-10-19T06:03:19.745Z,101166.56
2022-10-19T06:04:22.129Z,101162.34
2022-10-19T06:05:24.359Z,101165.00
2022-10-19T06:06:27.521Z,101163.44
2022-10-19T06:07:30.051Z,101162.66
2022-10-19T06:08:33.714Z,101161.88
2022-10-19T06:09:37.339Z,101164.34
2022-10-19T06:10:39.716Z,101165.56
2022-10-19T06:11:43.049Z,101170.09
2022-10-19T06:12:45.277Z,101173.97
2022-10-19T06:13:50.478Z,101175.84
2022-10-19T06:14:52.731Z,101170.56
2022-10-19T06:15:54.940Z,101173.41
2022-10-19T06:16:57.389Z,101175.72
2022-10-19T06:17:59.781Z,101167.00
2022-10-19T06:19:04.311Z,101164.50
2022-10-19T06:20:06.995Z,101179.59
2022-10-19T06:21:21.078Z,101178.50
2022-10-19T06:22:23.418Z,101178.97
2022-10-19T06:23:25.769Z,101175.34
2022-10-19T06:24:28.330Z,101173.34
2022-10-19T06:25:30.933Z,101179.09
2022-10-19T06:26:35.114Z,101179.44
2022-10-19T06:27:38.817Z,101181.72
2022-10-19T06:28:42.745Z,101175.97
2022-10-19T06:29:44.943Z,101184.38
2022-10-19T06:30:47.279Z,101178.47
2022-10-19T06:31:49.643Z,101178.13
2022-10-19T06:32:52.317Z,101178.91
2022-10-19T06:33:55.678Z,101179.34
2022-10-19T06:34:58.326Z,101180.13
2022-10-19T06:36:14.583Z,101182.66
2022-10-19T06:37:16.796Z,101177.06
2022-10-19T06:38:19.354Z,101172.31
2022-10-19T06:39:22.280Z,101178.72
2022-10-19T06:40:25.758Z,101173.28
2022-10-19T06:41:29.013Z,101169.22
2022-10-19T06:42:31.338Z,101170.88
2022-10-19T06:43:34.582Z,101174.78
2022-10-19T06:44:37.141Z,101172.91
2022-10-19T06:45:39.710Z,101175.88
2022-10-19T06:46:42.047Z,101171.38
2022-10-19T06:47:44.352Z,101167.75
2022-10-19T06:48:55.886Z,101163.69
2022-10-19T06:49:58.145Z,101158.56
2022-10-19T06:51:02.355Z,101165.19
2022-10-19T06:52:06.046Z,101162.22
2022-10-19T06:53:08.281Z,101163.44
2022-10-19T06:54:10.502Z,101157.97
2022-10-19T06:55:12.812Z,101158.53
2022-10-19T06:56:15.331Z,101161.19
2022-10-19T06:57:17.742Z,101160.66
2022-10-19T06:58:20.600Z,101165.41
2022-10-19T06:59:22.961Z,101168.03
2022-10-19T07:00:25.281Z,101160.69
2022-10-19T07:01:28.179Z,101172.19
2022-10-19T07:02:30.497Z,101166.09
2022-10-19T07:03:33.100Z,101172.31
2022-10-19T07:04:35.373Z,101168.56
2022-10-19T07:05:37.813Z,101175.56
2022-10-19T07:06:40.219Z,101178.19
2022-10-19T07:07:42.822Z,101174.00
2022-10-19T07:08:47.348Z,101184.38
2022-10-19T07:09:49.661Z,101177.81
2022-10-19T07:10:53.746Z,101188.19
2022-10-19T07:11:55.979Z,101187.09
2022-10-19T07:12:58.448Z,101184.88
2022-10-19T07:14:00.873Z,101180.34
2022-10-19T07:15:03.910Z,101183.47
2022-10-19T07:16:16.017Z,101187.34
2022-10-19T07:17:22.710Z,101181.03
2022-10-19T07:18:25.885Z,101184.75
2022-10-19T07:19:28.272Z,101180.97
2022-10-19T07:20:30.996Z,101188.53
2022-10-19T07:21:33.427Z,101193.03
2022-10-19T07:22:35.882Z,101192.94
2022-10-19T07:23:40.043Z,101196.38
2022-10-19T07:24:42.350Z,101194.97
2022-10-19T07:25:45.315Z,101198.97
2022-10-19T07:26:47.630Z,101189.75
2022-10-19T07:27:50.020Z,101187.88
2022-10-19T07:28:53.337Z,101199.38
2022-10-19T07:29:55.679Z,101199.38
2022-10-19T07:30:58.048Z,101189.47
2022-10-19T07:32:00.600Z,101186.41
2022-10-19T07:33:05.311Z,101192.06
2022-10-19T07:34:08.188Z,101181.78
2022-10-19T07:35:10.531Z,101178.47
2022-10-19T07:36:14.236Z,101167.97
2022-10-19T07:37:16.691Z,101175.75
2022-10-19T07:38:20.112Z,101184.00
2022-10-19T07:39:23.229Z,101181.75
2022-10-19T07:40:25.508Z,101177.81
2022-10-19T07:41:27.781Z,101177.59
2022-10-19T07:42:32.979Z,101181.94
2022-10-19T07:43:36.065Z,101176.22
2022-10-19T07:44:38.379Z,101171.69
2022-10-19T07:45:40.684Z,101172.66
2022-10-19T07:46:43.306Z,101174.69
2022-10-19T07:47:45.626Z,101174.81
2022-10-19T07:48:48.647Z,101172.41
2022-10-19T07:49:50.920Z,101174.16
2022-10-19T07:50:53.365Z,101174.16
2022-10-19T07:51:56.574Z,101166.16
2022-10-19T07:52:59.095Z,101168.38
2022-10-19T07:54:01.795Z,101166.09
2022-10-19T07:55:04.890Z,101172.25
2022-10-19T07:56:13.698Z,101166.31
2022-10-19T07:57:16.731Z,101173.78
2022-10-19T07:58:19.298Z,101163.19
2022-10-19T07:59:21.834Z,101173.63
2022-10-19T08:00:24.274Z,101179.97
2022-10-19T08:01:29.692Z,101175.13
2022-10-19T08:02:39.658Z,101174.09
2022-10-19T08:05:18.101Z,101172.72
2022-10-19T08:06:21.177Z,101171.63
2022-10-19T08:07:23.526Z,101169.78
2022-10-19T08:08:31.274Z,101169.41
2022-10-19T08:09:52.157Z,101173.16
2022-10-19T08:10:56.390Z,101167.00
2022-10-19T08:11:58.930Z,101169.94
2022-10-19T08:13:01.378Z,101169.97
2022-10-19T08:14:04.211Z,101166.94
2022-10-19T08:15:07.581Z,101160.47
2022-10-19T08:16:22.760Z,101162.47
2022-10-19T08:17:25.702Z,101156.53
2022-10-19T08:18:28.392Z,101161.44
2022-10-19T08:19:30.801Z,101165.63
2022-10-19T08:20:33.061Z,101160.50
2022-10-19T08:21:36.252Z,101157.50
2022-10-19T08:22:38.510Z,101163.53
2022-10-19T08:23:43.349Z,101162.84
2022-10-19T08:24:45.659Z,101170.16
2022-10-19T08:25:47.970Z,101162.00
2022-10-19T08:26:51.508Z,101159.88
2022-10-19T08:27:53.677Z,101160.91
2022-10-19T08:29:01.578Z,101161.31
2022-10-19T08:30:04.238Z,101164.38
2022-10-19T08:31:12.877Z,101156.34
2022-10-19T08:32:15.695Z,101158.69
2022-10-19T08:33:17.974Z,101157.03
2022-10-19T08:34:20.449Z,101156.72
2022-10-19T08:35:22.749Z,101162.44
2022-10-19T08:36:26.213Z,101160.53
2022-10-19T08:37:40.612Z,101159.22
2022-10-19T08:38:48.625Z,101155.97
2022-10-19T08:39:51.712Z,101152.06
2022-10-19T08:40:54.341Z,101155.38
2022-10-19T08:42:04.576Z,101158.81
2022-10-19T08:43:10.366Z,101160.59
2022-10-19T08:44:49.638Z,101150.72
2022-10-19T08:46:23.431Z,101155.28
2022-10-19T08:47:56.408Z,101157.06
2022-10-19T08:48:59.033Z,101147.56
2022-10-19T08:50:01.620Z,101157.78
2022-10-19T08:51:06.209Z,101158.59
2022-10-19T08:52:34.219Z,101160.09
2022-10-19T08:53:45.714Z,101167.63
2022-10-19T08:54:54.516Z,101163.94
2022-10-19T08:56:38.848Z,101158.50
2022-10-19T08:58:12.941Z,101150.47
2022-10-19T08:59:28.763Z,101146.31
2022-10-19T09:00:51.398Z,101154.84
2022-10-19T09:02:05.154Z,101160.19
2022-10-19T09:03:37.595Z,101157.84
2022-10-19T09:04:52.987Z,101162.00
2022-10-19T09:06:35.052Z,101160.88
2022-10-19T09:07:45.760Z,101159.34
2022-10-19T09:08:52.089Z,101158.66
2022-10-19T09:10:06.737Z,101157.09
2022-10-19T09:11:11.455Z,101158.66
2022-10-19T09:12:19.645Z,101155.50
2022-10-19T09:14:03.761Z,101162.44
2022-10-19T09:15:11.551Z,101168.44
2022-10-19T09:16:17.707Z,101155.06
2022-10-19T09:17:20.790Z,101164.78
2022-10-19T09:18:30.043Z,101159.78
2022-10-19T09:19:32.742Z,101171.47
2022-10-19T09:20:41.559Z,101163.94
2022-10-19T09:21:49.739Z,101156.38
2022-10-19T09:23:20.675Z,101156.31
2022-10-19T09:24:43.977Z,101149.75
2022-10-19T09:25:49.812Z,101152.88
2022-10-19T09:26:56.119Z,101151.31
2022-10-19T09:28:12.790Z,101151.00
2022-10-19T09:29:38.064Z,101148.56
2022-10-19T09:30:43.431Z,101144.06
2022-10-19T09:31:46.456Z,101143.69
2022-10-19T09:33:03.698Z,101146.38
2022-10-19T09:34:11.733Z,101148.75
2022-10-19T09:35:26.489Z,101153.88
2022-10-19T09:36:56.611Z,101153.16
2022-10-19T09:38:00.393Z,101152.59
2022-10-19T09:39:04.277Z,101154.78
2022-10-19T09:40:07.496Z,101155.19
2022-10-19T09:41:28.703Z,101154.81
2022-10-19T09:42:37.628Z,101151.22
2022-10-19T09:43:50.875Z,101150.56
2022-10-19T09:44:55.206Z,101152.78
2022-10-19T09:46:20.336Z,101153.13
2022-10-19T09:47:36.716Z,101154.88
2022-10-19T09:48:49.404Z,101149.50
2022-10-19T09:50:16.972Z,101138.06
2022-10-19T09:51:20.756Z,101142.91
2022-10-19T09:52:37.319Z,101142.63
2022-10-19T09:53:46.999Z,101135.13
2022-10-19T09:54:59.960Z,101135.50
2022-10-19T09:56:07.955Z,101138.00
2022-10-19T09:57:21.144Z,101138.94
2022-10-19T09:58:30.562Z,101141.22
2022-10-19T09:59:37.162Z,101141.41
2022-10-19T10:00:44.577Z,101140.06
2022-10-19T10:02:00.528Z,101138.38
2022-10-19T10:03:03.108Z,101144.25
2022-10-19T10:04:10.878Z,101138.22
2022-10-19T10:05:16.790Z,101132.22
2022-10-19T10:06:22.696Z,101139.41
2022-10-19T10:07:30.570Z,101136.84
2022-10-19T10:08:39.626Z,101135.31
2022-10-19T10:09:45.047Z,101134.31
2022-10-19T10:10:54.425Z,101131.31
2022-10-19T10:12:00.433Z,101131.69
2022-10-19T10:13:03.268Z,101119.78
2022-10-19T10:14:17.421Z,101124.34
2022-10-19T10:15:24.713Z,101125.84
2022-10-19T10:16:30.549Z,101132.41
2022-10-19T10:17:33.986Z,101127.88
2022-10-19T10:18:56.686Z,101129.25
2022-10-19T10:19:59.101Z,101130.25
2022-10-19T10:21:14.428Z,101123.25
2022-10-19T10:22:37.310Z,101131.63
2022-10-19T10:23:39.842Z,101124.66
2022-10-19T10:24:52.670Z,101108.72
2022-10-19T10:25:59.943Z,101117.56
2022-10-19T10:27:05.788Z,101115.53
2022-10-19T10:28:21.774Z,101116.59
2022-10-19T10:29:29.924Z,101124.19
2022-10-19T10:30:37.585Z,101124.78
2022-10-19T10:31:42.682Z,101121.19
2022-10-19T10:32:50.359Z,101125.03
2022-10-19T10:34:12.323Z,101123.25
2022-10-19T10:35:34.521Z,101114.00
2022-10-19T10:36:37.085Z,101116.41
2022-10-19T10:37:41.838Z,101119.00
2022-10-19T10:39:08.660Z,101121.31
2022-10-19T10:40:27.703Z,101109.78
2022-10-19T10:41:36.847Z,101119.06
2022-10-19T10:42:44.785Z,101112.16
2022-10-19T10:44:02.380Z,101110.31
2022-10-19T10:45:17.414Z,101108.78
2022-10-19T10:46:23.929Z,101105.78
2022-10-19T10:47:29.176Z,101109.59
2022-10-19T10:48:38.773Z,101107.72
2022-10-19T10:49:42.869Z,101106.94
2022-10-19T10:50:45.578Z,101108.72
2022-10-19T10:51:55.196Z,101115.69
2022-10-19T10:52:57.396Z,101113.38
2022-10-19T10:54:27.764Z,101114.94
2022-10-19T10:55:32.181Z,101102.69
2022-10-19T10:56:35.471Z,101105.78
2022-10-19T10:57:48.243Z,101103.47
2022-10-19T10:58:57.839Z,101103.09
2022-10-19T11:00:14.675Z,101096.56
2022-10-19T11:01:22.335Z,101103.09
2022-10-19T11:02:30.681Z,101101.94
2022-10-19T11:03:34.067Z,101092.34
2022-10-19T11:04:41.687Z,101100.41
2022-10-19T11:05:48.494Z,101095.41
2022-10-19T11:06:56.570Z,101096.19
2022-10-19T11:08:21.032Z,101095.03
2022-10-19T11:09:28.979Z,101098.47
2022-10-19T11:10:39.792Z,101098.09
2022-10-19T11:11:47.786Z,101093.50
2022-10-19T11:12:58.704Z,101093.50
2022-10-19T11:14:29.496Z,101094.25
2022-10-19T11:15:39.871Z,101090.81
2022-10-19T11:16:45.264Z,101093.88
2022-10-19T11:18:00.289Z,101096.50
2022-10-19T11:20:17.418Z,101087.31
2022-10-19T11:21:19.850Z,101098.50
2022-10-19T11:22:42.267Z,101095.41
2022-10-19T11:23:59.922Z,101096.94
2022-10-19T11:25:30.613Z,101095.34
2022-10-19T11:26:45.189Z,101093.13
2022-10-19T11:27:50.402Z,101097.31
2022-10-19T11:28:58.804Z,101088.06
2022-10-19T11:30:18.637Z,101083.03
2022-10-19T11:31:30.490Z,101092.28
2022-10-19T11:32:36.175Z,101078.47
2022-10-19T11:33:44.815Z,101077.31
2022-10-19T11:34:58.749Z,101071.19
2022-10-19T11:36:33.351Z,101066.66
2022-10-19T11:38:00.411Z,101075.00
2022-10-19T11:39:16.494Z,101074.59
2022-10-19T11:41:18.289Z,101076.50
2022-10-19T11:42:42.686Z,101076.47
2022-10-19T11:44:07.055Z,101071.22
2022-10-19T11:45:12.388Z,101065.88
2022-10-19T11:47:03.008Z,101068.94
2022-10-19T11:48:26.875Z,101064.00
2022-10-19T11:49:42.561Z,101063.91
2022-10-19T11:50:54.475Z,101064.69
2022-10-19T11:52:20.199Z,101065.88
2022-10-19T11:53:31.757Z,101056.69
2022-10-19T11:54:34.139Z,101063.25
2022-10-19T11:55:56.513Z,101067.72
2022-10-19T11:57:15.872Z,101064.28
2022-10-19T11:58:39.428Z,101058.25
2022-10-19T12:00:13.850Z,101062.81
2022-10-19T12:01:39.570Z,101057.47
2022-10-19T12:03:03.862Z,101054.00
2022-10-19T12:04:28.796Z,101047.50
2022-10-19T12:05:50.135Z,101053.63
2022-10-19T12:07:09.566Z,101047.47
2022-10-19T12:08:50.140Z,101046.34
2022-10-19T12:10:12.551Z,101042.91
2022-10-19T12:11:53.548Z,101047.81
2022-10-19T12:13:01.252Z,101050.56
2022-10-19T12:14:06.455Z,101038.72
2022-10-19T12:15:11.428Z,101033.53
2022-10-19T12:16:15.031Z,101044.47
2022-10-19T12:17:29.607Z,101038.09
2022-10-19T12:18:47.738Z,101035.88
2022-10-19T12:19:55.764Z,101040.91
2022-10-19T12:21:03.774Z,101035.63
2022-10-19T12:22:12.262Z,101034.47
2022-10-19T12:23:23.277Z,101039.78
2022-10-19T12:24:26.683Z,101031.34
2022-10-19T12:25:29.218Z,101038.56
2022-10-19T12:26:36.723Z,101036.63
2022-10-19T12:27:41.630Z,101034.31
2022-10-19T12:28:51.300Z,101026.22
2022-10-19T12:29:54.065Z,101025.88
2022-10-19T12:30:57.913Z,101024.75
2022-10-19T12:32:01.257Z,101026.59
2022-10-19T12:33:34.294Z,101025.16
2022-10-19T12:34:55.485Z,101031.50
2022-10-19T12:36:06.887Z,101034.06
2022-10-19T12:37:42.285Z,101031.72
2022-10-19T12:39:05.762Z,101028.69
2022-10-19T12:40:25.839Z,101033.53
2022-10-19T12:41:44.581Z,101031.19
2022-10-19T12:42:55.993Z,101030.75
2022-10-19T12:43:58.180Z,101042.13
2022-10-19T12:45:31.020Z,101035.69
2022-10-19T12:46:49.949Z,101031.44
2022-10-19T12:48:08.367Z,101028.44
2022-10-19T12:49:46.154Z,101026.78
2022-10-19T12:50:48.676Z,101024.16
2022-10-19T12:51:52.102Z,101015.72
2022-10-19T12:52:54.907Z,101009.72
2022-10-19T12:54:08.741Z,101022.25
2022-10-19T12:55:17.049Z,101022.25
2022-10-19T12:56:26.618Z,101015.34